sensor_id;sensor_type;location;lat;lon;timestamp;P1;durP1;ratioP1;P2;durP2;ratioP2
5787;SDS011;2920;48.158;12.254;2023-05-08T00:01:53;12.10;;;7.60;;
5787;SDS011;2920;48.158;12.254;2023-05-08T00:04:18;11.40;;;6.88;;
5787;SDS011;2920;48.158;12.254;2023-05-08T00:06:44;12.90;;;7.07;;
5787;SDS011;2920;48.158;12.254;2023-05-08T00:09:10;9.82;;;6.47;;
5787;SDS011;2920;48.158;12.254;2023-05-08T00:11:36;10.10;;;5.90;;
5787;SDS011;2920;48.158;12.254;2023-05-08T00:14:02;10.77;;;7.05;;
5787;SDS011;2920;48.158;12.254;2023-05-08T00:16:27;11.30;;;6.43;;
5787;SDS011;2920;48.158;12.254;2023-05-08T00:18:52;10.35;;;6.88;;
5787;SDS011;2920;48.158;12.254;2023-05-08T00:21:18;9.35;;;6.78;;
5787;SDS011;2920;48.158;12.254;2023-05-08T00:23:44;9.15;;;6.53;;
5787;SDS011;2920;48.158;12.254;2023-05-08T00:26:09;11.45;;;7.38;;
5787;SDS011;2920;48.158;12.254;2023-05-08T00:28:35;10.40;;;6.68;;
5787;SDS011;2920;48.158;12.254;2023-05-08T00:31:00;10.35;;;5.90;;
5787;SDS011;2920;48.158;12.254;2023-05-08T00:33:28;10.02;;;6.00;;
5787;SDS011;2920;48.158;12.254;2023-05-08T00:36:00;10.18;;;6.25;;
5787;SDS011;2920;48.158;12.254;2023-05-08T00:38:26;9.25;;;6.22;;
5787;SDS011;2920;48.158;12.254;2023-05-08T00:40:51;10.98;;;6.43;;
5787;SDS011;2920;48.158;12.254;2023-05-08T00:43:16;8.77;;;4.97;;
5787;SDS011;2920;48.158;12.254;2023-05-08T00:45:41;8.95;;;7.05;;
5787;SDS011;2920;48.158;12.254;2023-05-08T00:48:07;7.88;;;5.95;;
5787;SDS011;2920;48.158;12.254;2023-05-08T00:50:32;9.63;;;6.32;;
5787;SDS011;2920;48.158;12.254;2023-05-08T00:52:59;9.80;;;6.40;;
5787;SDS011;2920;48.158;12.254;2023-05-08T00:55:25;9.25;;;6.28;;
5787;SDS011;2920;48.158;12.254;2023-05-08T00:57:51;9.93;;;6.47;;
5787;SDS011;2920;48.158;12.254;2023-05-08T01:00:16;10.77;;;6.32;;
5787;SDS011;2920;48.158;12.254;2023-05-08T01:02:42;12.23;;;6.43;;
5787;SDS011;2920;48.158;12.254;2023-05-08T01:05:08;8.27;;;6.03;;
5787;SDS011;2920;48.158;12.254;2023-05-08T01:07:34;10.52;;;6.03;;
5787;SDS011;2920;48.158;12.254;2023-05-08T01:09:59;9.25;;;6.47;;
5787;SDS011;2920;48.158;12.254;2023-05-08T01:17:44;8.50;;;5.90;;
5787;SDS011;2920;48.158;12.254;2023-05-08T01:20:39;9.25;;;6.38;;
5787;SDS011;2920;48.158;12.254;2023-05-08T01:28:51;8.88;;;5.72;;
5787;SDS011;2920;48.158;12.254;2023-05-08T01:31:32;8.32;;;5.90;;
5787;SDS011;2920;48.158;12.254;2023-05-08T01:34:13;9.00;;;5.63;;
5787;SDS011;2920;48.158;12.254;2023-05-08T01:36:59;8.88;;;5.85;;
5787;SDS011;2920;48.158;12.254;2023-05-08T01:39:38;9.07;;;6.07;;
5787;SDS011;2920;48.158;12.254;2023-05-08T01:44:44;8.43;;;5.97;;
5787;SDS011;2920;48.158;12.254;2023-05-08T01:47:13;9.25;;;5.50;;
5787;SDS011;2920;48.158;12.254;2023-05-08T01:49:46;8.02;;;4.93;;
5787;SDS011;2920;48.158;12.254;2023-05-08T01:52:20;8.25;;;5.50;;
5787;SDS011;2920;48.158;12.254;2023-05-08T01:54:56;9.25;;;5.38;;
5787;SDS011;2920;48.158;12.254;2023-05-08T01:57:25;12.18;;;6.75;;
5787;SDS011;2920;48.158;12.254;2023-05-08T01:59:51;8.90;;;5.82;;
5787;SDS011;2920;48.158;12.254;2023-05-08T02:02:18;11.32;;;5.97;;
5787;SDS011;2920;48.158;12.254;2023-05-08T02:04:44;7.63;;;5.35;;
5787;SDS011;2920;48.158;12.254;2023-05-08T02:07:10;9.77;;;6.07;;
5787;SDS011;2920;48.158;12.254;2023-05-08T02:09:36;8.85;;;5.72;;
5787;SDS011;2920;48.158;12.254;2023-05-08T02:12:02;7.53;;;5.05;;
5787;SDS011;2920;48.158;12.254;2023-05-08T02:14:28;10.00;;;6.80;;
5787;SDS011;2920;48.158;12.254;2023-05-08T02:16:54;10.15;;;6.32;;
5787;SDS011;2920;48.158;12.254;2023-05-08T02:19:22;8.13;;;5.57;;
5787;SDS011;2920;48.158;12.254;2023-05-08T02:21:49;9.43;;;5.80;;
5787;SDS011;2920;48.158;12.254;2023-05-08T02:24:15;9.95;;;6.28;;
5787;SDS011;2920;48.158;12.254;2023-05-08T02:26:41;10.40;;;6.32;;
5787;SDS011;2920;48.158;12.254;2023-05-08T02:29:08;8.20;;;5.03;;
5787;SDS011;2920;48.158;12.254;2023-05-08T02:31:34;8.25;;;5.35;;
5787;SDS011;2920;48.158;12.254;2023-05-08T02:34:00;8.07;;;5.20;;
5787;SDS011;2920;48.158;12.254;2023-05-08T02:36:26;9.15;;;5.68;;
5787;SDS011;2920;48.158;12.254;2023-05-08T02:38:53;8.68;;;6.32;;
5787;SDS011;2920;48.158;12.254;2023-05-08T02:41:20;9.40;;;6.22;;
5787;SDS011;2920;48.158;12.254;2023-05-08T02:43:47;8.88;;;5.78;;
5787;SDS011;2920;48.158;12.254;2023-05-08T02:48:50;8.07;;;5.30;;
5787;SDS011;2920;48.158;12.254;2023-05-08T02:51:25;10.23;;;5.68;;
5787;SDS011;2920;48.158;12.254;2023-05-08T02:53:55;11.00;;;6.38;;
5787;SDS011;2920;48.158;12.254;2023-05-08T02:56:30;6.88;;;4.80;;
5787;SDS011;2920;48.158;12.254;2023-05-08T02:59:19;10.85;;;5.63;;
5787;SDS011;2920;48.158;12.254;2023-05-08T03:06:44;9.00;;;5.55;;
5787;SDS011;2920;48.158;12.254;2023-05-08T03:09:11;8.55;;;5.65;;
5787;SDS011;2920;48.158;12.254;2023-05-08T03:11:41;8.55;;;5.18;;
5787;SDS011;2920;48.158;12.254;2023-05-08T03:14:08;9.40;;;5.47;;
5787;SDS011;2920;48.158;12.254;2023-05-08T03:16:35;9.15;;;5.88;;
5787;SDS011;2920;48.158;12.254;2023-05-08T03:19:06;9.45;;;6.28;;
5787;SDS011;2920;48.158;12.254;2023-05-08T03:21:32;9.25;;;5.63;;
5787;SDS011;2920;48.158;12.254;2023-05-08T03:24:00;7.60;;;4.82;;
5787;SDS011;2920;48.158;12.254;2023-05-08T03:26:27;10.60;;;5.90;;
5787;SDS011;2920;48.158;12.254;2023-05-08T03:28:52;11.45;;;5.53;;
5787;SDS011;2920;48.158;12.254;2023-05-08T03:31:18;7.18;;;4.82;;
5787;SDS011;2920;48.158;12.254;2023-05-08T03:33:47;9.23;;;6.28;;
5787;SDS011;2920;48.158;12.254;2023-05-08T03:36:15;7.95;;;5.72;;
5787;SDS011;2920;48.158;12.254;2023-05-08T03:38:41;9.05;;;5.28;;
5787;SDS011;2920;48.158;12.254;2023-05-08T03:41:06;10.23;;;6.43;;
5787;SDS011;2920;48.158;12.254;2023-05-08T03:43:32;8.32;;;5.95;;
5787;SDS011;2920;48.158;12.254;2023-05-08T03:45:58;11.18;;;6.03;;
5787;SDS011;2920;48.158;12.254;2023-05-08T03:48:23;9.35;;;6.43;;
5787;SDS011;2920;48.158;12.254;2023-05-08T03:50:50;10.20;;;6.68;;
5787;SDS011;2920;48.158;12.254;2023-05-08T03:53:16;7.88;;;5.13;;
5787;SDS011;2920;48.158;12.254;2023-05-08T03:55:41;10.25;;;5.35;;
5787;SDS011;2920;48.158;12.254;2023-05-08T04:01:17;8.15;;;5.95;;
5787;SDS011;2920;48.158;12.254;2023-05-08T04:03:54;9.82;;;6.40;;
5787;SDS011;2920;48.158;12.254;2023-05-08T04:06:24;8.50;;;5.55;;
5787;SDS011;2920;48.158;12.254;2023-05-08T04:09:07;9.95;;;6.18;;
5787;SDS011;2920;48.158;12.254;2023-05-08T04:14:12;12.13;;;7.38;;
5787;SDS011;2920;48.158;12.254;2023-05-08T04:16:39;8.48;;;5.65;;
5787;SDS011;2920;48.158;12.254;2023-05-08T04:19:14;11.43;;;6.70;;
5787;SDS011;2920;48.158;12.254;2023-05-08T04:21:43;9.73;;;6.57;;
5787;SDS011;2920;48.158;12.254;2023-05-08T04:24:09;10.15;;;5.90;;
5787;SDS011;2920;48.158;12.254;2023-05-08T04:26:37;10.13;;;6.20;;
5787;SDS011;2920;48.158;12.254;2023-05-08T04:29:02;9.93;;;6.63;;
5787;SDS011;2920;48.158;12.254;2023-05-08T04:31:30;8.85;;;6.25;;
5787;SDS011;2920;48.158;12.254;2023-05-08T04:33:55;14.43;;;6.88;;
5787;SDS011;2920;48.158;12.254;2023-05-08T04:36:22;10.77;;;7.82;;
5787;SDS011;2920;48.158;12.254;2023-05-08T04:38:47;10.57;;;6.55;;
5787;SDS011;2920;48.158;12.254;2023-05-08T04:41:13;10.10;;;6.68;;
5787;SDS011;2920;48.158;12.254;2023-05-08T04:43:39;9.82;;;5.57;;
5787;SDS011;2920;48.158;12.254;2023-05-08T04:46:05;10.48;;;6.72;;
5787;SDS011;2920;48.158;12.254;2023-05-08T04:48:30;10.85;;;6.80;;
5787;SDS011;2920;48.158;12.254;2023-05-08T04:50:57;11.57;;;6.53;;
5787;SDS011;2920;48.158;12.254;2023-05-08T04:53:23;9.25;;;5.97;;
5787;SDS011;2920;48.158;12.254;2023-05-08T04:55:48;10.15;;;6.63;;
5787;SDS011;2920;48.158;12.254;2023-05-08T04:58:13;9.48;;;6.22;;
5787;SDS011;2920;48.158;12.254;2023-05-08T05:00:38;10.65;;;6.72;;
5787;SDS011;2920;48.158;12.254;2023-05-08T05:03:04;10.60;;;6.95;;
5787;SDS011;2920;48.158;12.254;2023-05-08T05:05:29;10.68;;;6.75;;
5787;SDS011;2920;48.158;12.254;2023-05-08T05:07:55;10.70;;;6.43;;
5787;SDS011;2920;48.158;12.254;2023-05-08T05:10:20;12.13;;;7.05;;
5787;SDS011;2920;48.158;12.254;2023-05-08T05:12:45;10.82;;;6.88;;
5787;SDS011;2920;48.158;12.254;2023-05-08T05:15:11;10.57;;;7.50;;
5787;SDS011;2920;48.158;12.254;2023-05-08T05:17:36;12.02;;;6.85;;
5787;SDS011;2920;48.158;12.254;2023-05-08T05:20:02;10.35;;;7.18;;
5787;SDS011;2920;48.158;12.254;2023-05-08T05:22:27;12.05;;;6.07;;
5787;SDS011;2920;48.158;12.254;2023-05-08T05:24:53;9.65;;;7.00;;
5787;SDS011;2920;48.158;12.254;2023-05-08T05:27:18;9.80;;;7.13;;
5787;SDS011;2920;48.158;12.254;2023-05-08T05:29:43;10.32;;;6.82;;
5787;SDS011;2920;48.158;12.254;2023-05-08T05:32:09;8.85;;;6.68;;
5787;SDS011;2920;48.158;12.254;2023-05-08T05:34:35;10.43;;;6.47;;
5787;SDS011;2920;48.158;12.254;2023-05-08T05:37:00;11.05;;;7.07;;
5787;SDS011;2920;48.158;12.254;2023-05-08T05:39:26;14.38;;;7.50;;
5787;SDS011;2920;48.158;12.254;2023-05-08T05:41:51;12.38;;;8.63;;
5787;SDS011;2920;48.158;12.254;2023-05-08T05:44:17;28.20;;;14.73;;
5787;SDS011;2920;48.158;12.254;2023-05-08T05:46:42;30.30;;;14.20;;
5787;SDS011;2920;48.158;12.254;2023-05-08T05:49:07;20.90;;;10.15;;
5787;SDS011;2920;48.158;12.254;2023-05-08T05:51:32;13.35;;;8.68;;
5787;SDS011;2920;48.158;12.254;2023-05-08T05:53:58;13.48;;;8.20;;
5787;SDS011;2920;48.158;12.254;2023-05-08T05:56:23;13.98;;;8.75;;
5787;SDS011;2920;48.158;12.254;2023-05-08T05:58:49;20.63;;;12.27;;
5787;SDS011;2920;48.158;12.254;2023-05-08T06:01:14;22.63;;;13.25;;
5787;SDS011;2920;48.158;12.254;2023-05-08T06:03:39;25.73;;;16.50;;
5787;SDS011;2920;48.158;12.254;2023-05-08T06:06:05;28.85;;;17.23;;
5787;SDS011;2920;48.158;12.254;2023-05-08T06:08:30;24.38;;;13.65;;
5787;SDS011;2920;48.158;12.254;2023-05-08T06:10:55;16.80;;;11.13;;
5787;SDS011;2920;48.158;12.254;2023-05-08T06:13:21;17.85;;;10.85;;
5787;SDS011;2920;48.158;12.254;2023-05-08T06:15:46;14.52;;;8.63;;
5787;SDS011;2920;48.158;12.254;2023-05-08T06:18:11;13.73;;;8.32;;
5787;SDS011;2920;48.158;12.254;2023-05-08T06:20:37;12.70;;;8.45;;
5787;SDS011;2920;48.158;12.254;2023-05-08T06:23:03;13.30;;;8.43;;
5787;SDS011;2920;48.158;12.254;2023-05-08T06:25:29;15.50;;;9.02;;
5787;SDS011;2920;48.158;12.254;2023-05-08T06:27:55;14.05;;;8.57;;
5787;SDS011;2920;48.158;12.254;2023-05-08T06:30:20;12.60;;;8.23;;
5787;SDS011;2920;48.158;12.254;2023-05-08T06:32:45;13.43;;;9.32;;
5787;SDS011;2920;48.158;12.254;2023-05-08T06:35:11;16.42;;;8.65;;
5787;SDS011;2920;48.158;12.254;2023-05-08T06:37:36;12.13;;;7.57;;
5787;SDS011;2920;48.158;12.254;2023-05-08T06:40:01;12.43;;;8.23;;
5787;SDS011;2920;48.158;12.254;2023-05-08T06:42:27;13.30;;;8.63;;
5787;SDS011;2920;48.158;12.254;2023-05-08T06:44:53;10.35;;;7.80;;
5787;SDS011;2920;48.158;12.254;2023-05-08T06:47:18;13.32;;;9.00;;
5787;SDS011;2920;48.158;12.254;2023-05-08T06:49:44;13.55;;;8.32;;
5787;SDS011;2920;48.158;12.254;2023-05-08T06:52:09;26.48;;;14.65;;
5787;SDS011;2920;48.158;12.254;2023-05-08T06:54:34;28.58;;;16.65;;
5787;SDS011;2920;48.158;12.254;2023-05-08T06:57:00;30.08;;;18.05;;
5787;SDS011;2920;48.158;12.254;2023-05-08T06:59:25;23.35;;;14.20;;
5787;SDS011;2920;48.158;12.254;2023-05-08T07:01:50;16.52;;;11.10;;
5787;SDS011;2920;48.158;12.254;2023-05-08T07:04:16;15.38;;;10.45;;
5787;SDS011;2920;48.158;12.254;2023-05-08T07:06:41;14.95;;;9.85;;
5787;SDS011;2920;48.158;12.254;2023-05-08T07:09:06;15.95;;;10.23;;
5787;SDS011;2920;48.158;12.254;2023-05-08T07:11:32;17.27;;;10.30;;
5787;SDS011;2920;48.158;12.254;2023-05-08T07:13:57;15.50;;;10.82;;
5787;SDS011;2920;48.158;12.254;2023-05-08T07:16:22;15.25;;;10.80;;
5787;SDS011;2920;48.158;12.254;2023-05-08T07:18:48;15.68;;;10.32;;
5787;SDS011;2920;48.158;12.254;2023-05-08T07:21:13;16.80;;;11.73;;
5787;SDS011;2920;48.158;12.254;2023-05-08T07:23:39;17.73;;;12.00;;
5787;SDS011;2920;48.158;12.254;2023-05-08T07:26:05;17.63;;;12.05;;
5787;SDS011;2920;48.158;12.254;2023-05-08T07:28:32;21.48;;;12.73;;
5787;SDS011;2920;48.158;12.254;2023-05-08T07:30:57;23.40;;;14.52;;
5787;SDS011;2920;48.158;12.254;2023-05-08T07:33:22;19.48;;;13.15;;
5787;SDS011;2920;48.158;12.254;2023-05-08T07:35:48;18.75;;;11.38;;
5787;SDS011;2920;48.158;12.254;2023-05-08T07:38:13;19.67;;;12.57;;
5787;SDS011;2920;48.158;12.254;2023-05-08T07:40:38;19.52;;;12.05;;
5787;SDS011;2920;48.158;12.254;2023-05-08T07:43:04;18.08;;;12.88;;
5787;SDS011;2920;48.158;12.254;2023-05-08T07:45:29;22.88;;;13.05;;
5787;SDS011;2920;48.158;12.254;2023-05-08T07:47:55;20.38;;;14.48;;
5787;SDS011;2920;48.158;12.254;2023-05-08T07:50:21;20.85;;;13.30;;
5787;SDS011;2920;48.158;12.254;2023-05-08T07:52:47;18.70;;;12.02;;
5787;SDS011;2920;48.158;12.254;2023-05-08T07:55:13;20.52;;;13.27;;
5787;SDS011;2920;48.158;12.254;2023-05-08T07:57:38;21.48;;;13.30;;
5787;SDS011;2920;48.158;12.254;2023-05-08T08:00:05;22.58;;;15.00;;
5787;SDS011;2920;48.158;12.254;2023-05-08T08:02:31;18.98;;;12.00;;
5787;SDS011;2920;48.158;12.254;2023-05-08T08:04:57;23.75;;;14.68;;
5787;SDS011;2920;48.158;12.254;2023-05-08T08:07:22;22.42;;;14.55;;
5787;SDS011;2920;48.158;12.254;2023-05-08T08:09:47;21.52;;;14.00;;
5787;SDS011;2920;48.158;12.254;2023-05-08T08:12:13;21.02;;;14.30;;
5787;SDS011;2920;48.158;12.254;2023-05-08T08:14:38;19.60;;;13.57;;
5787;SDS011;2920;48.158;12.254;2023-05-08T08:17:03;21.58;;;14.40;;
5787;SDS011;2920;48.158;12.254;2023-05-08T08:19:29;21.80;;;14.25;;
5787;SDS011;2920;48.158;12.254;2023-05-08T08:21:54;21.75;;;13.27;;
5787;SDS011;2920;48.158;12.254;2023-05-08T08:24:20;21.85;;;13.18;;
5787;SDS011;2920;48.158;12.254;2023-05-08T08:26:45;20.75;;;12.30;;
5787;SDS011;2920;48.158;12.254;2023-05-08T08:29:11;18.48;;;12.10;;
5787;SDS011;2920;48.158;12.254;2023-05-08T08:31:36;17.15;;;10.73;;
5787;SDS011;2920;48.158;12.254;2023-05-08T08:34:02;14.60;;;10.13;;
5787;SDS011;2920;48.158;12.254;2023-05-08T08:36:27;17.30;;;11.93;;
5787;SDS011;2920;48.158;12.254;2023-05-08T08:38:52;19.58;;;12.43;;
5787;SDS011;2920;48.158;12.254;2023-05-08T08:41:18;21.45;;;13.55;;
5787;SDS011;2920;48.158;12.254;2023-05-08T08:43:43;20.98;;;13.65;;
5787;SDS011;2920;48.158;12.254;2023-05-08T08:46:12;22.23;;;14.07;;
5787;SDS011;2920;48.158;12.254;2023-05-08T08:48:41;17.92;;;13.05;;
5787;SDS011;2920;48.158;12.254;2023-05-08T08:51:09;18.38;;;13.18;;
5787;SDS011;2920;48.158;12.254;2023-05-08T08:53:42;18.67;;;13.05;;
5787;SDS011;2920;48.158;12.254;2023-05-08T08:56:08;20.85;;;13.80;;
5787;SDS011;2920;48.158;12.254;2023-05-08T08:58:36;21.17;;;12.60;;
5787;SDS011;2920;48.158;12.254;2023-05-08T09:01:02;20.83;;;12.43;;
5787;SDS011;2920;48.158;12.254;2023-05-08T09:03:29;19.30;;;12.05;;
5787;SDS011;2920;48.158;12.254;2023-05-08T09:05:58;19.30;;;12.40;;
5787;SDS011;2920;48.158;12.254;2023-05-08T09:08:24;20.50;;;13.40;;
5787;SDS011;2920;48.158;12.254;2023-05-08T09:10:50;20.88;;;13.95;;
5787;SDS011;2920;48.158;12.254;2023-05-08T09:13:17;20.55;;;14.60;;
5787;SDS011;2920;48.158;12.254;2023-05-08T09:15:43;21.77;;;14.25;;
5787;SDS011;2920;48.158;12.254;2023-05-08T09:18:08;22.45;;;13.68;;
5787;SDS011;2920;48.158;12.254;2023-05-08T09:20:33;21.52;;;13.82;;
5787;SDS011;2920;48.158;12.254;2023-05-08T09:22:59;21.80;;;14.73;;
5787;SDS011;2920;48.158;12.254;2023-05-08T09:25:39;20.92;;;14.10;;
5787;SDS011;2920;48.158;12.254;2023-05-08T09:28:17;23.23;;;14.30;;
5787;SDS011;2920;48.158;12.254;2023-05-08T09:30:48;20.42;;;14.40;;
5787;SDS011;2920;48.158;12.254;2023-05-08T09:33:15;21.95;;;15.13;;
5787;SDS011;2920;48.158;12.254;2023-05-08T09:35:41;23.08;;;16.27;;
5787;SDS011;2920;48.158;12.254;2023-05-08T09:38:06;24.33;;;17.13;;
5787;SDS011;2920;48.158;12.254;2023-05-08T09:40:32;20.45;;;15.60;;
5787;SDS011;2920;48.158;12.254;2023-05-08T09:42:57;25.33;;;18.10;;
5787;SDS011;2920;48.158;12.254;2023-05-08T09:45:36;25.70;;;17.30;;
5787;SDS011;2920;48.158;12.254;2023-05-08T09:48:03;27.30;;;16.45;;
5787;SDS011;2920;48.158;12.254;2023-05-08T09:50:29;21.73;;;15.68;;
5787;SDS011;2920;48.158;12.254;2023-05-08T09:52:55;24.30;;;16.27;;
5787;SDS011;2920;48.158;12.254;2023-05-08T09:55:20;26.10;;;16.92;;
5787;SDS011;2920;48.158;12.254;2023-05-08T09:57:53;23.40;;;16.38;;
5787;SDS011;2920;48.158;12.254;2023-05-08T10:00:23;21.77;;;14.45;;
5787;SDS011;2920;48.158;12.254;2023-05-08T10:10:14;23.33;;;15.07;;
5787;SDS011;2920;48.158;12.254;2023-05-08T10:12:46;19.60;;;14.48;;
5787;SDS011;2920;48.158;12.254;2023-05-08T10:15:12;20.50;;;15.40;;
5787;SDS011;2920;48.158;12.254;2023-05-08T10:17:47;20.38;;;14.50;;
5787;SDS011;2920;48.158;12.254;2023-05-08T10:20:33;19.77;;;15.18;;
5787;SDS011;2920;48.158;12.254;2023-05-08T10:22:59;19.33;;;15.15;;
5787;SDS011;2920;48.158;12.254;2023-05-08T10:25:25;20.85;;;13.90;;
5787;SDS011;2920;48.158;12.254;2023-05-08T10:28:04;22.52;;;14.43;;
5787;SDS011;2920;48.158;12.254;2023-05-08T10:30:31;17.88;;;14.40;;
5787;SDS011;2920;48.158;12.254;2023-05-08T10:32:58;16.67;;;12.55;;
5787;SDS011;2920;48.158;12.254;2023-05-08T10:35:25;22.55;;;16.13;;
5787;SDS011;2920;48.158;12.254;2023-05-08T10:37:51;20.23;;;14.93;;
5787;SDS011;2920;48.158;12.254;2023-05-08T10:40:16;18.17;;;13.98;;
5787;SDS011;2920;48.158;12.254;2023-05-08T10:42:42;21.00;;;14.98;;
5787;SDS011;2920;48.158;12.254;2023-05-08T10:45:09;21.38;;;15.25;;
5787;SDS011;2920;48.158;12.254;2023-05-08T10:48:10;20.80;;;15.95;;
5787;SDS011;2920;48.158;12.254;2023-05-08T10:55:49;18.45;;;13.75;;
5787;SDS011;2920;48.158;12.254;2023-05-08T10:58:27;15.63;;;12.68;;
5787;SDS011;2920;48.158;12.254;2023-05-08T11:03:30;15.10;;;11.63;;
5787;SDS011;2920;48.158;12.254;2023-05-08T11:05:56;15.73;;;12.07;;
5787;SDS011;2920;48.158;12.254;2023-05-08T11:08:24;18.75;;;12.38;;
5787;SDS011;2920;48.158;12.254;2023-05-08T11:10:59;19.27;;;14.47;;
5787;SDS011;2920;48.158;12.254;2023-05-08T11:13:36;16.98;;;12.48;;
5787;SDS011;2920;48.158;12.254;2023-05-08T11:16:03;15.68;;;12.45;;
5787;SDS011;2920;48.158;12.254;2023-05-08T11:18:31;15.40;;;12.23;;
5787;SDS011;2920;48.158;12.254;2023-05-08T11:20:57;16.23;;;11.80;;
5787;SDS011;2920;48.158;12.254;2023-05-08T11:23:25;20.23;;;13.75;;
5787;SDS011;2920;48.158;12.254;2023-05-08T11:25:58;17.77;;;13.07;;
5787;SDS011;2920;48.158;12.254;2023-05-08T11:28:29;18.85;;;10.32;;
5787;SDS011;2920;48.158;12.254;2023-05-08T11:30:55;21.02;;;14.35;;
5787;SDS011;2920;48.158;12.254;2023-05-08T11:33:21;21.20;;;12.02;;
5787;SDS011;2920;48.158;12.254;2023-05-08T11:35:51;19.98;;;13.02;;
5787;SDS011;2920;48.158;12.254;2023-05-08T11:38:22;15.57;;;11.88;;
5787;SDS011;2920;48.158;12.254;2023-05-08T11:40:48;14.35;;;11.52;;
5787;SDS011;2920;48.158;12.254;2023-05-08T11:46:16;15.38;;;11.73;;
5787;SDS011;2920;48.158;12.254;2023-05-08T11:48:43;20.20;;;12.43;;
5787;SDS011;2920;48.158;12.254;2023-05-08T11:51:08;15.55;;;11.00;;
5787;SDS011;2920;48.158;12.254;2023-05-08T11:53:34;15.40;;;11.57;;
5787;SDS011;2920;48.158;12.254;2023-05-08T11:56:01;19.25;;;12.05;;
5787;SDS011;2920;48.158;12.254;2023-05-08T11:58:26;18.48;;;12.80;;
5787;SDS011;2920;48.158;12.254;2023-05-08T12:00:52;14.23;;;11.80;;
5787;SDS011;2920;48.158;12.254;2023-05-08T12:03:19;13.15;;;8.93;;
5787;SDS011;2920;48.158;12.254;2023-05-08T12:05:45;13.00;;;8.75;;
5787;SDS011;2920;48.158;12.254;2023-05-08T12:08:12;12.80;;;10.55;;
5787;SDS011;2920;48.158;12.254;2023-05-08T12:10:38;13.32;;;10.57;;
5787;SDS011;2920;48.158;12.254;2023-05-08T12:13:14;14.20;;;9.98;;
5787;SDS011;2920;48.158;12.254;2023-05-08T12:15:40;14.02;;;10.75;;
5787;SDS011;2920;48.158;12.254;2023-05-08T12:18:06;13.63;;;9.45;;
5787;SDS011;2920;48.158;12.254;2023-05-08T12:20:31;14.18;;;9.70;;
5787;SDS011;2920;48.158;12.254;2023-05-08T12:22:56;12.73;;;10.15;;
5787;SDS011;2920;48.158;12.254;2023-05-08T12:25:22;14.65;;;10.68;;
5787;SDS011;2920;48.158;12.254;2023-05-08T12:27:49;13.50;;;10.18;;
5787;SDS011;2920;48.158;12.254;2023-05-08T12:30:14;15.30;;;10.25;;
5787;SDS011;2920;48.158;12.254;2023-05-08T12:32:40;11.80;;;9.50;;
5787;SDS011;2920;48.158;12.254;2023-05-08T12:35:06;11.05;;;9.65;;
5787;SDS011;2920;48.158;12.254;2023-05-08T12:37:33;14.52;;;10.00;;
5787;SDS011;2920;48.158;12.254;2023-05-08T12:39:59;11.60;;;8.93;;
5787;SDS011;2920;48.158;12.254;2023-05-08T12:45:15;13.40;;;10.10;;
5787;SDS011;2920;48.158;12.254;2023-05-08T12:47:45;12.45;;;8.85;;
5787;SDS011;2920;48.158;12.254;2023-05-08T12:50:12;13.27;;;9.57;;
5787;SDS011;2920;48.158;12.254;2023-05-08T12:52:38;11.38;;;9.05;;
5787;SDS011;2920;48.158;12.254;2023-05-08T12:55:04;17.13;;;9.00;;
5787;SDS011;2920;48.158;12.254;2023-05-08T12:57:29;11.55;;;8.85;;
5787;SDS011;2920;48.158;12.254;2023-05-08T13:00:01;9.52;;;7.18;;
5787;SDS011;2920;48.158;12.254;2023-05-08T13:02:28;9.77;;;8.25;;
5787;SDS011;2920;48.158;12.254;2023-05-08T13:04:54;10.95;;;8.88;;
5787;SDS011;2920;48.158;12.254;2023-05-08T13:07:20;11.48;;;8.77;;
5787;SDS011;2920;48.158;12.254;2023-05-08T13:09:58;15.75;;;8.90;;
5787;SDS011;2920;48.158;12.254;2023-05-08T13:12:27;12.50;;;9.25;;
5787;SDS011;2920;48.158;12.254;2023-05-08T13:14:52;12.40;;;9.52;;
5787;SDS011;2920;48.158;12.254;2023-05-08T13:17:18;10.15;;;8.40;;
5787;SDS011;2920;48.158;12.254;2023-05-08T13:19:43;10.15;;;8.07;;
5787;SDS011;2920;48.158;12.254;2023-05-08T13:22:08;10.38;;;9.07;;
5787;SDS011;2920;48.158;12.254;2023-05-08T13:24:34;13.55;;;8.85;;
5787;SDS011;2920;48.158;12.254;2023-05-08T13:26:59;11.10;;;8.13;;
5787;SDS011;2920;48.158;12.254;2023-05-08T13:29:24;13.55;;;10.05;;
5787;SDS011;2920;48.158;12.254;2023-05-08T13:31:50;8.50;;;6.85;;
5787;SDS011;2920;48.158;12.254;2023-05-08T13:34:15;12.82;;;9.70;;
5787;SDS011;2920;48.158;12.254;2023-05-08T13:36:40;11.93;;;10.00;;
5787;SDS011;2920;48.158;12.254;2023-05-08T13:39:05;13.10;;;8.73;;
5787;SDS011;2920;48.158;12.254;2023-05-08T13:41:31;13.43;;;9.43;;
5787;SDS011;2920;48.158;12.254;2023-05-08T13:43:56;14.45;;;9.73;;
5787;SDS011;2920;48.158;12.254;2023-05-08T13:46:22;10.00;;;7.78;;
5787;SDS011;2920;48.158;12.254;2023-05-08T13:48:48;10.48;;;7.97;;
5787;SDS011;2920;48.158;12.254;2023-05-08T13:51:13;9.32;;;7.20;;
5787;SDS011;2920;48.158;12.254;2023-05-08T13:53:38;12.50;;;9.63;;
5787;SDS011;2920;48.158;12.254;2023-05-08T13:56:03;10.18;;;7.65;;
5787;SDS011;2920;48.158;12.254;2023-05-08T13:58:29;10.18;;;8.23;;
5787;SDS011;2920;48.158;12.254;2023-05-08T14:00:55;13.20;;;10.38;;
5787;SDS011;2920;48.158;12.254;2023-05-08T14:03:20;12.10;;;8.90;;
5787;SDS011;2920;48.158;12.254;2023-05-08T14:05:45;16.70;;;11.30;;
5787;SDS011;2920;48.158;12.254;2023-05-08T14:08:11;12.68;;;9.10;;
5787;SDS011;2920;48.158;12.254;2023-05-08T14:10:36;12.80;;;9.15;;
5787;SDS011;2920;48.158;12.254;2023-05-08T14:13:02;9.13;;;7.05;;
5787;SDS011;2920;48.158;12.254;2023-05-08T14:15:28;13.32;;;9.95;;
5787;SDS011;2920;48.158;12.254;2023-05-08T14:17:53;15.55;;;12.23;;
5787;SDS011;2920;48.158;12.254;2023-05-08T14:20:18;10.57;;;8.52;;
5787;SDS011;2920;48.158;12.254;2023-05-08T14:22:44;14.38;;;11.07;;
5787;SDS011;2920;48.158;12.254;2023-05-08T14:25:09;11.90;;;9.43;;
5787;SDS011;2920;48.158;12.254;2023-05-08T14:27:34;12.02;;;9.63;;
5787;SDS011;2920;48.158;12.254;2023-05-08T14:30:00;15.23;;;9.93;;
5787;SDS011;2920;48.158;12.254;2023-05-08T14:32:25;13.25;;;9.82;;
5787;SDS011;2920;48.158;12.254;2023-05-08T14:34:50;16.85;;;10.38;;
5787;SDS011;2920;48.158;12.254;2023-05-08T14:37:16;15.43;;;11.82;;
5787;SDS011;2920;48.158;12.254;2023-05-08T14:39:41;14.50;;;10.10;;
5787;SDS011;2920;48.158;12.254;2023-05-08T14:42:07;20.00;;;10.30;;
5787;SDS011;2920;48.158;12.254;2023-05-08T14:44:32;18.15;;;9.70;;
5787;SDS011;2920;48.158;12.254;2023-05-08T14:46:57;12.68;;;8.77;;
5787;SDS011;2920;48.158;12.254;2023-05-08T14:49:22;15.15;;;10.13;;
5787;SDS011;2920;48.158;12.254;2023-05-08T14:51:48;15.05;;;10.48;;
5787;SDS011;2920;48.158;12.254;2023-05-08T14:54:13;16.52;;;11.82;;
5787;SDS011;2920;48.158;12.254;2023-05-08T14:56:38;18.10;;;13.23;;
5787;SDS011;2920;48.158;12.254;2023-05-08T14:59:04;14.25;;;10.30;;
5787;SDS011;2920;48.158;12.254;2023-05-08T15:01:29;15.38;;;11.93;;
5787;SDS011;2920;48.158;12.254;2023-05-08T15:03:54;12.15;;;8.40;;
5787;SDS011;2920;48.158;12.254;2023-05-08T15:06:20;12.68;;;8.93;;
5787;SDS011;2920;48.158;12.254;2023-05-08T15:08:47;21.88;;;12.48;;
5787;SDS011;2920;48.158;12.254;2023-05-08T15:11:12;13.30;;;9.60;;
5787;SDS011;2920;48.158;12.254;2023-05-08T15:13:38;11.95;;;9.15;;
5787;SDS011;2920;48.158;12.254;2023-05-08T15:16:03;19.75;;;11.55;;
5787;SDS011;2920;48.158;12.254;2023-05-08T15:18:29;17.73;;;10.95;;
5787;SDS011;2920;48.158;12.254;2023-05-08T15:20:54;15.70;;;11.32;;
5787;SDS011;2920;48.158;12.254;2023-05-08T15:23:20;18.33;;;12.65;;
5787;SDS011;2920;48.158;12.254;2023-05-08T15:25:45;16.00;;;11.55;;
5787;SDS011;2920;48.158;12.254;2023-05-08T15:28:11;16.58;;;12.65;;
5787;SDS011;2920;48.158;12.254;2023-05-08T15:30:36;19.20;;;12.98;;
5787;SDS011;2920;48.158;12.254;2023-05-08T15:33:01;14.43;;;9.50;;